Terminal Aerodrome Forecast
Issued by NWS

Home | Current Version | Previous Version | Graphics & Text | Print | Product List | Glossary On
Versions: 1 2 3 4 5 6 7 8 9 10 11 12
048
FTUS45 KGGW 231120
TAFSDY
TAF
KSDY 231120Z 2312/2412 01008KT P6SM BKN090
     FM231400 01010KT P6SM VCSH OVC060
     FM231600 01011KT P6SM -RA OVC035
     FM240300 33006KT P6SM OVC090=

USA.gov is the U.S. government's official web portal to all federal, state and local government web resources and services.